Time;durP1;ratioP1;P1;durP2;ratioP2;P2;SDS_P1;SDS_P2;PMS_P1;PMS_P2;Temp;Humidity;BMP_temperature;BMP_pressure;BME280_temperature;BME280_humidity;BME280_pressure;Samples;Min_cycle;Max_cycle;Signal;HPM_P1;HPM_P2
2023/12/01 00:01:56;;;;;;;89.90;56.67;;;;;;;14.04;nan;99289.84;4762337;29;20116;-63
2023/12/01 00:04:29;;;;;;;94.78;57.72;;;;;;;13.97;nan;99295.16;4769247;30;20059;-63
2023/12/01 00:06:58;;;;;;;92.18;54.67;;;;;;;13.94;nan;99295.53;4775846;30;20536;-63
2023/12/01 00:09:28;;;;;;;89.90;55.05;;;;;;;13.89;nan;99292.69;4778728;29;20055;-62
2023/12/01 00:11:57;;;;;;;92.07;57.00;;;;;;;13.83;nan;99296.13;4766620;29;20121;-63
2023/12/01 00:14:27;;;;;;;94.72;54.70;;;;;;;13.83;nan;99296.97;4771538;30;20056;-63
2023/12/01 00:16:57;;;;;;;99.75;57.63;;;;;;;13.86;nan;99306.38;4764385;30;20071;-63
2023/12/01 00:19:26;;;;;;;95.75;56.60;;;;;;;13.89;nan;99308.66;4752701;29;20154;-63
2023/12/01 00:21:57;;;;;;;96.60;56.45;;;;;;;13.87;nan;99318.69;4781884;29;20066;-63
2023/12/01 00:24:27;;;;;;;96.63;58.22;;;;;;;13.85;nan;99318.88;4773766;29;20051;-63
2023/12/01 00:26:57;;;;;;;96.82;56.25;;;;;;;13.87;nan;99316.00;4774942;29;20062;-64
2023/12/01 00:29:27;;;;;;;91.70;57.58;;;;;;;13.87;nan;99316.00;4776029;29;20154;-63
2023/12/01 00:31:57;;;;;;;93.55;57.00;;;;;;;13.88;nan;99323.81;4776317;29;20064;-63
2023/12/01 00:34:26;;;;;;;89.20;54.50;;;;;;;13.88;nan;99320.31;4774775;29;20063;-63
2023/12/01 00:36:56;;;;;;;92.45;57.10;;;;;;;13.81;nan;99322.13;4795610;29;20603;-63
2023/12/01 00:39:26;;;;;;;86.85;55.58;;;;;;;13.81;nan;99317.63;4765276;29;20059;-63
2023/12/01 00:41:57;;;;;;;90.03;54.40;;;;;;;13.82;nan;99319.28;4783035;29;20146;-64
2023/12/01 00:44:27;;;;;;;95.40;58.33;;;;;;;13.79;nan;99318.84;4769852;29;20210;-63
2023/12/01 00:46:57;;;;;;;90.13;57.10;;;;;;;13.83;nan;99320.91;4777038;29;20058;-63
2023/12/01 00:49:26;;;;;;;97.43;59.47;;;;;;;13.78;nan;99320.69;4761858;29;20480;-64
2023/12/01 00:51:56;;;;;;;99.80;59.55;;;;;;;13.78;nan;99326.00;4765036;29;20065;-61
2023/12/01 00:54:26;;;;;;;98.95;60.35;;;;;;;13.85;nan;99323.41;4759822;29;20071;-61
2023/12/01 00:56:55;;;;;;;97.72;61.10;;;;;;;13.78;nan;99325.19;4777297;29;20067;-63
2023/12/01 00:59:25;;;;;;;98.88;60.67;;;;;;;13.81;nan;99322.13;4764330;29;20051;-64
2023/12/01 01:01:54;;;;;;;101.70;61.30;;;;;;;13.82;nan;99326.44;4776681;29;20063;-63
2023/12/01 01:04:24;;;;;;;104.82;61.78;;;;;;;13.82;nan;99342.41;4780534;29;20229;-63
2023/12/01 01:06:53;;;;;;;106.93;63.40;;;;;;;13.79;nan;99335.66;4795005;29;20062;-64
2023/12/01 01:09:23;;;;;;;106.60;64.80;;;;;;;13.75;nan;99326.41;4779274;29;20051;-63
2023/12/01 01:11:53;;;;;;;108.00;63.97;;;;;;;13.68;nan;99328.22;4768049;29;20078;-62
2023/12/01 01:14:22;;;;;;;102.63;62.72;;;;;;;13.66;nan;99327.59;4773931;29;20046;-62
2023/12/01 01:16:52;;;;;;;110.32;66.93;;;;;;;13.69;nan;99329.84;4775391;29;20132;-63
2023/12/01 01:19:22;;;;;;;112.25;65.28;;;;;;;13.68;nan;99332.69;4762747;29;20055;-63
2023/12/01 01:21:52;;;;;;;116.28;69.57;;;;;;;13.73;nan;99332.94;4765099;29;20055;-63
2023/12/01 01:24:23;;;;;;;113.53;68.07;;;;;;;13.79;nan;99334.81;4768323;29;20954;-63
2023/12/01 01:26:52;;;;;;;109.88;68.20;;;;;;;13.79;nan;99329.50;4765501;30;20059;-63
2023/12/01 01:29:22;;;;;;;115.43;70.03;;;;;;;13.75;nan;99333.56;4762592;30;20067;-63
2023/12/01 01:31:52;;;;;;;114.07;71.07;;;;;;;13.73;nan;99336.44;4761213;30;20083;-63
2023/12/01 01:34:22;;;;;;;117.88;69.97;;;;;;;13.81;nan;99346.09;4771429;30;20059;-63
2023/12/01 01:36:51;;;;;;;116.68;71.28;;;;;;;13.76;nan;99345.88;4763289;30;20381;-63
2023/12/01 01:39:21;;;;;;;111.60;69.38;;;;;;;13.76;nan;99343.22;4763377;30;20055;-64
2023/12/01 01:41:51;;;;;;;112.57;70.00;;;;;;;13.78;nan;99338.50;4776284;29;20429;-63
2023/12/01 01:44:21;;;;;;;117.72;73.10;;;;;;;13.76;nan;99345.88;4771799;29;20766;-64
2023/12/01 01:46:51;;;;;;;120.93;72.22;;;;;;;13.87;nan;99354.13;4774948;29;20162;-63
2023/12/01 01:49:26;;;;;;;117.03;71.53;;;;;;;13.81;nan;99352.22;4763682;29;20059;-64
2023/12/01 01:51:59;;;;;;;117.82;71.43;;;;;;;13.81;nan;99352.22;4753028;30;20505;-63
2023/12/01 01:54:29;;;;;;;114.00;67.28;;;;;;;13.75;nan;99350.38;4769708;30;20058;-63
2023/12/01 01:57:00;;;;;;;117.07;69.05;;;;;;;13.80;nan;99358.59;4762458;30;20066;-63
2023/12/01 01:59:29;;;;;;;116.28;69.10;;;;;;;13.82;nan;99355.72;4747921;29;20543;-63
2023/12/01 02:01:59;;;;;;;115.50;69.50;;;;;;;13.79;nan;99356.94;4775867;29;20052;-63
2023/12/01 02:04:31;;;;;;;119.53;69.33;;;;;;;13.77;nan;99358.97;4761507;30;20113;-63
2023/12/01 02:07:01;;;;;;;114.38;70.70;;;;;;;13.76;nan;99361.84;4762624;30;20638;-63
2023/12/01 02:09:34;;;;;;;114.97;69.25;;;;;;;13.83;nan;99360.84;4774232;29;20492;-63
2023/12/01 02:12:04;;;;;;;113.13;66.82;;;;;;;13.84;nan;99367.84;4765853;29;20086;-63
2023/12/01 02:14:34;;;;;;;100.40;60.72;;;;;;;13.89;nan;99368.06;4768787;29;20400;-63
2023/12/01 02:17:04;;;;;;;78.60;49.95;;;;;;;13.92;nan;99366.84;4761261;30;20055;-63
2023/12/01 02:19:33;;;;;;;77.75;46.13;;;;;;;13.97;nan;99359.09;4774309;30;20051;-63
2023/12/01 02:22:03;;;;;;;66.97;43.50;;;;;;;13.99;nan;99362.34;4751566;29;20061;-63
2023/12/01 02:24:33;;;;;;;63.60;39.67;;;;;;;14.01;nan;99360.31;4768755;30;20055;-63
2023/12/01 02:27:02;;;;;;;60.85;39.08;;;;;;;14.00;nan;99365.84;4761719;30;20452;-64
2023/12/01 02:29:31;;;;;;;60.33;36.67;;;;;;;14.06;nan;99365.88;4774503;30;20073;-63
2023/12/01 02:32:01;;;;;;;61.50;38.17;;;;;;;14.15;nan;99367.38;4765346;30;20063;-63
2023/12/01 02:34:30;;;;;;;58.78;37.97;;;;;;;14.21;nan;99363.88;4763642;29;20706;-63
2023/12/01 02:37:00;;;;;;;57.38;35.70;;;;;;;14.27;nan;99362.28;4765422;29;20066;-62
2023/12/01 02:39:29;;;;;;;62.63;38.03;;;;;;;14.30;nan;99364.53;4773552;29;20047;-63
2023/12/01 02:41:58;;;;;;;59.08;34.80;;;;;;;14.33;nan;99364.97;4768161;30;20080;-63
2023/12/01 02:44:28;;;;;;;60.83;36.75;;;;;;;14.37;nan;99366.25;4768558;29;20062;-63
2023/12/01 02:46:57;;;;;;;57.65;37.20;;;;;;;14.48;nan;99369.31;4762161;29;20059;-63
2023/12/01 02:49:27;;;;;;;64.13;37.55;;;;;;;14.58;nan;99365.25;4765325;29;20055;-63
2023/12/01 02:51:56;;;;;;;61.70;39.30;;;;;;;14.67;nan;99372.06;4765676;30;20346;-63
2023/12/01 02:54:26;;;;;;;64.20;37.38;;;;;;;14.70;nan;99382.31;4770498;29;20044;-63
2023/12/01 02:56:55;;;;;;;61.72;37.38;;;;;;;14.81;nan;99380.91;4764097;30;20056;-63
2023/12/01 02:59:24;;;;;;;63.10;38.05;;;;;;;14.91;nan;99375.16;4760494;30;20128;-63
2023/12/01 03:01:54;;;;;;;67.45;39.45;;;;;;;15.01;nan;99379.06;4762111;30;20074;-63
2023/12/01 03:04:24;;;;;;;59.63;37.33;;;;;;;15.11;nan;99387.50;4761630;30;20070;-63
2023/12/01 03:06:54;;;;;;;60.78;36.78;;;;;;;15.28;nan;99390.56;4764048;29;20133;-63
2023/12/01 03:09:23;;;;;;;60.45;35.97;;;;;;;15.34;nan;99391.59;4778751;29;20162;-63
2023/12/01 03:11:53;;;;;;;57.35;33.90;;;;;;;15.43;nan;99393.03;4763706;30;20060;-63
2023/12/01 03:14:22;;;;;;;59.45;35.15;;;;;;;15.65;nan;99408.66;4769059;29;20066;-63
2023/12/01 03:16:52;;;;;;;59.20;33.22;;;;;;;15.97;nan;99404.28;4774568;29;20557;-63
2023/12/01 03:19:21;;;;;;;56.08;31.80;;;;;;;16.16;nan;99406.03;4778141;29;20086;-63
2023/12/01 03:21:51;;;;;;;47.15;30.90;;;;;;;16.29;nan;99409.69;4766924;29;20043;-63
2023/12/01 03:24:21;;;;;;;46.72;29.63;;;;;;;16.37;nan;99407.63;4772623;29;20377;-63
2023/12/01 03:26:50;;;;;;;50.15;29.20;;;;;;;16.65;nan;99418.00;4785945;29;20488;-63
2023/12/01 03:29:19;;;;;;;56.75;31.88;;;;;;;16.81;nan;99408.66;4781377;29;20090;-65
2023/12/01 03:31:49;;;;;;;48.05;30.35;;;;;;;16.98;nan;99415.94;4765657;29;20090;-64
2023/12/01 03:34:18;;;;;;;56.65;29.27;;;;;;;17.18;nan;99414.97;4792180;29;20139;-63
2023/12/01 03:36:48;;;;;;;53.28;31.85;;;;;;;17.49;nan;99414.94;4785194;29;20131;-63
2023/12/01 03:39:17;;;;;;;57.90;31.02;;;;;;;17.62;nan;99422.06;4776599;29;20594;-63
2023/12/01 03:41:49;;;;;;;48.85;29.58;;;;;;;17.80;nan;99425.59;4776544;29;20364;-63
2023/12/01 03:44:19;;;;;;;56.95;32.88;;;;;;;17.93;nan;99430.81;4771465;29;20595;-63
2023/12/01 03:46:50;;;;;;;52.00;31.38;;;;;;;18.10;nan;99435.59;4764258;29;20059;-63
2023/12/01 03:49:20;;;;;;;54.95;31.58;;;;;;;18.22;nan;99437.31;4762680;29;20477;-63
2023/12/01 03:51:51;;;;;;;51.17;32.00;;;;;;;18.53;nan;99435.53;4779889;29;20249;-64
2023/12/01 03:54:21;;;;;;;53.47;32.25;;;;;;;18.63;nan;99436.63;4763600;29;20065;-63
2023/12/01 03:56:51;;;;;;;55.80;33.67;;;;;;;18.79;nan;99437.88;4764888;29;20086;-63
2023/12/01 03:59:20;;;;;;;59.53;34.72;;;;;;;18.93;nan;99442.00;4762035;29;20079;-63
2023/12/01 04:01:50;;;;;;;55.70;33.88;;;;;;;19.04;nan;99443.09;4766151;29;20050;-63
2023/12/01 04:04:20;;;;;;;53.00;32.22;;;;;;;19.12;nan;99446.25;4782810;29;20389;-62
2023/12/01 04:06:50;;;;;;;49.75;29.58;;;;;;;19.33;nan;99452.16;4778583;29;20109;-63
2023/12/01 04:09:19;;;;;;;42.92;27.92;;;;;;;19.51;nan;99455.63;4762057;29;20134;-63
2023/12/01 04:11:54;;;;;;;45.90;28.50;;;;;;;19.49;nan;99454.19;4779629;29;20059;-63
2023/12/01 04:14:23;;;;;;;44.10;27.95;;;;;;;19.80;nan;99451.19;4785800;29;20047;-63
2023/12/01 04:16:52;;;;;;;46.90;28.45;;;;;;;19.92;nan;99452.00;4782081;29;20074;-62
2023/12/01 04:19:23;;;;;;;41.35;28.05;;;;;;;19.97;nan;99451.28;4778384;29;20059;-63
2023/12/01 04:21:53;;;;;;;47.38;27.42;;;;;;;20.16;nan;99452.81;4766054;29;20055;-62
2023/12/01 04:24:22;;;;;;;41.60;27.90;;;;;;;20.34;nan;99455.38;4773960;29;20101;-63
2023/12/01 04:26:51;;;;;;;73.47;31.30;;;;;;;20.37;nan;99446.81;4778616;29;20065;-62
2023/12/01 04:29:21;;;;;;;48.58;29.63;;;;;;;20.32;nan;99446.72;4772903;29;20154;-63
2023/12/01 04:31:50;;;;;;;48.70;30.77;;;;;;;20.53;nan;99446.06;4767076;30;20572;-62
2023/12/01 04:34:27;;;;;;;51.70;29.88;;;;;;;20.52;nan;99435.56;4769061;29;20207;-62
2023/12/01 04:36:56;;;;;;;52.45;32.47;;;;;;;20.46;nan;99441.88;4763508;29;20504;-62
2023/12/01 04:39:26;;;;;;;56.08;33.92;;;;;;;20.46;nan;99452.66;4763938;29;20152;-62
2023/12/01 04:41:56;;;;;;;48.80;32.15;;;;;;;20.33;nan;99444.84;4767427;29;20063;-62
2023/12/01 04:44:25;;;;;;;53.78;33.40;;;;;;;20.18;nan;99450.69;4764152;29;20056;-63
2023/12/01 04:46:55;;;;;;;57.15;34.67;;;;;;;20.02;nan;99446.03;4762821;29;20460;-61
2023/12/01 04:49:24;;;;;;;55.72;36.17;;;;;;;20.15;nan;99441.22;4764922;29;20541;-62
2023/12/01 04:51:54;;;;;;;63.03;38.00;;;;;;;19.87;nan;99432.25;4765340;29;20358;-60
2023/12/01 04:54:23;;;;;;;59.20;36.38;;;;;;;20.01;nan;99428.25;4763169;29;20055;-62
2023/12/01 04:56:53;;;;;;;67.60;38.45;;;;;;;19.87;nan;99441.13;4767688;29;20500;-61
2023/12/01 04:59:22;;;;;;;46.45;29.83;;;;;;;19.75;nan;99432.25;4762433;29;20853;-61
2023/12/01 05:01:52;;;;;;;48.42;30.98;;;;;;;19.79;nan;99446.84;4781825;29;20136;-61
2023/12/01 05:04:21;;;;;;;42.88;28.35;;;;;;;19.65;nan;99443.56;4785497;29;20142;-61
2023/12/01 05:06:50;;;;;;;47.45;28.52;;;;;;;19.51;nan;99449.44;4769159;29;20062;-61
2023/12/01 05:09:22;;;;;;;45.75;28.67;;;;;;;19.61;nan;99437.03;4768446;29;21570;-62
2023/12/01 05:11:52;;;;;;;47.22;29.85;;;;;;;19.76;nan;99436.59;4765437;29;21243;-62
2023/12/01 05:14:21;;;;;;;44.35;29.50;;;;;;;19.80;nan;99424.31;4770132;29;20718;-62
2023/12/01 05:16:50;;;;;;;39.10;25.67;;;;;;;19.69;nan;99425.94;4772749;29;20729;-61
2023/12/01 05:19:20;;;;;;;39.85;25.38;;;;;;;19.69;nan;99420.56;4767215;29;20082;-62
2023/12/01 05:21:53;;;;;;;40.72;26.42;;;;;;;19.77;nan;99421.28;4753204;30;20055;-62
2023/12/01 05:24:23;;;;;;;42.13;26.27;;;;;;;19.89;nan;99411.31;4761502;29;20062;-62
2023/12/01 05:26:53;;;;;;;40.13;26.40;;;;;;;20.08;nan;99410.13;4761761;30;20051;-62
2023/12/01 05:29:22;;;;;;;43.42;26.92;;;;;;;19.99;nan;99404.31;4766502;29;20820;-62
2023/12/01 05:31:51;;;;;;;35.22;23.23;;;;;;;19.95;nan;99411.22;4750177;30;20059;-62
2023/12/01 05:34:22;;;;;;;35.85;23.23;;;;;;;20.00;nan;99405.13;4768125;29;20121;-64
2023/12/01 05:36:52;;;;;;;33.38;21.10;;;;;;;20.06;nan;99415.75;4768763;29;20055;-63
2023/12/01 05:39:22;;;;;;;36.63;23.48;;;;;;;20.17;nan;99408.72;4769069;29;20484;-64
2023/12/01 05:41:51;;;;;;;41.83;25.88;;;;;;;20.27;nan;99406.22;4763689;29;20152;-64
2023/12/01 05:44:21;;;;;;;42.28;26.27;;;;;;;20.45;nan;99406.09;4762498;29;20142;-63
2023/12/01 05:46:50;;;;;;;52.72;26.95;;;;;;;20.77;nan;99405.63;4769843;29;20503;-63
2023/12/01 05:49:20;;;;;;;43.03;26.92;;;;;;;20.91;nan;99404.25;4771541;29;20477;-63
2023/12/01 05:51:49;;;;;;;36.38;24.77;;;;;;;21.03;nan;99405.00;4764443;29;20067;-64
2023/12/01 05:54:18;;;;;;;38.30;24.00;;;;;;;20.92;nan;99401.34;4767506;29;20101;-64
2023/12/01 05:56:48;;;;;;;38.33;23.02;;;;;;;21.07;nan;99398.06;4765608;29;20066;-65
2023/12/01 05:59:17;;;;;;;35.65;22.40;;;;;;;21.06;nan;99401.84;4764437;29;20578;-64
2023/12/01 06:01:47;;;;;;;39.38;24.95;;;;;;;21.37;nan;99395.13;4765616;29;20062;-63
2023/12/01 06:04:16;;;;;;;41.47;26.05;;;;;;;21.27;nan;99397.66;4753246;29;20048;-64
2023/12/01 06:06:47;;;;;;;47.95;27.45;;;;;;;21.31;nan;99385.31;4771550;29;20120;-63
2023/12/01 06:09:17;;;;;;;43.92;26.95;;;;;;;21.47;nan;99388.00;4767799;29;20146;-63
2023/12/01 06:11:47;;;;;;;52.38;29.33;;;;;;;21.48;nan;99386.94;4773574;29;20158;-63
2023/12/01 06:14:17;;;;;;;49.80;29.63;;;;;;;21.42;nan;99385.22;4759336;29;20158;-62
2023/12/01 06:16:46;;;;;;;44.30;28.27;;;;;;;21.28;nan;99375.03;4761074;30;20056;-63
2023/12/01 06:19:17;;;;;;;52.30;30.73;;;;;;;21.37;nan;99365.47;4777181;29;20077;-63
2023/12/01 06:21:46;;;;;;;47.85;29.45;;;;;;;21.40;nan;99357.72;4778500;29;20078;-63
2023/12/01 06:24:16;;;;;;;47.80;28.90;;;;;;;21.43;nan;99356.38;4759146;29;20837;-63
2023/12/01 06:26:45;;;;;;;47.38;29.75;;;;;;;21.45;nan;99354.28;4767344;29;20059;-63
2023/12/01 06:29:16;;;;;;;50.97;30.98;;;;;;;21.54;nan;99352.78;4771523;29;20051;-63
2023/12/01 06:31:45;;;;;;;52.70;29.73;;;;;;;21.54;nan;99352.78;4765979;29;20047;-63
2023/12/01 06:34:15;;;;;;;43.88;27.90;;;;;;;21.52;nan;99338.75;4765761;30;20076;-65
2023/12/01 06:36:44;;;;;;;47.88;29.10;;;;;;;21.50;nan;99330.91;4760891;30;20069;-63
2023/12/01 06:39:14;;;;;;;49.17;32.92;;;;;;;21.68;nan;99326.31;4759531;29;20131;-63
2023/12/01 06:41:46;;;;;;;52.95;35.38;;;;;;;21.63;nan;99323.53;4767966;30;20122;-63
2023/12/01 06:44:15;;;;;;;55.97;35.03;;;;;;;21.38;nan;99318.59;4749708;30;20079;-63
2023/12/01 06:46:45;;;;;;;57.75;32.63;;;;;;;21.57;nan;99316.44;4762392;30;20067;-64
2023/12/01 06:49:14;;;;;;;45.08;30.05;;;;;;;21.70;nan;99307.97;4769804;30;20061;-65
2023/12/01 06:51:44;;;;;;;47.17;30.58;;;;;;;21.78;nan;99307.53;4772271;29;20052;-65
2023/12/01 06:54:14;;;;;;;52.08;32.97;;;;;;;21.72;nan;99300.47;4778160;30;20715;-63
2023/12/01 06:56:43;;;;;;;53.78;32.05;;;;;;;21.92;nan;99303.41;4771043;30;20086;-63
2023/12/01 06:59:12;;;;;;;55.95;33.88;;;;;;;21.93;nan;99297.81;4768036;29;20067;-65
2023/12/01 07:01:42;;;;;;;58.65;32.22;;;;;;;21.97;nan;99297.28;4766788;30;20063;-63
2023/12/01 07:04:13;;;;;;;46.67;30.67;;;;;;;21.96;nan;99285.69;4778369;29;20484;-64
2023/12/01 07:06:46;;;;;;;50.58;30.42;;;;;;;22.15;nan;99284.31;4764526;29;20146;-63
2023/12/01 07:09:22;;;;;;;43.53;29.55;;;;;;;22.08;nan;99277.47;4768124;29;20062;-63
2023/12/01 07:11:52;;;;;;;46.92;30.50;;;;;;;22.09;nan;99273.69;4770798;29;20075;-63
2023/12/01 07:14:23;;;;;;;53.85;29.48;;;;;;;22.10;nan;99268.03;4771951;29;20125;-64
2023/12/01 07:16:53;;;;;;;54.10;30.48;;;;;;;22.13;nan;99264.06;4773876;29;20051;-63
2023/12/01 07:19:22;;;;;;;49.88;29.85;;;;;;;22.13;nan;99259.44;4769795;30;20043;-64
2023/12/01 07:21:52;;;;;;;56.85;30.52;;;;;;;22.17;nan;99248.97;4757207;30;20545;-64
2023/12/01 07:24:21;;;;;;;49.75;29.92;;;;;;;22.20;nan;99251.97;4758542;30;20412;-63
2023/12/01 07:26:51;;;;;;;46.30;29.67;;;;;;;22.16;nan;99242.75;4745951;30;20109;-64
2023/12/01 07:29:21;;;;;;;49.38;28.92;;;;;;;22.16;nan;99236.56;4756086;30;20052;-64
2023/12/01 07:31:51;;;;;;;47.55;29.45;;;;;;;22.08;nan;99229.75;4754314;30;20205;-64
2023/12/01 07:34:20;;;;;;;53.47;29.90;;;;;;;22.03;nan;99229.69;4758943;30;20142;-64
2023/12/01 07:36:52;;;;;;;47.10;28.98;;;;;;;22.11;nan;99234.63;4760900;30;20499;-63
2023/12/01 07:39:23;;;;;;;45.78;28.77;;;;;;;22.09;nan;99227.81;4759340;30;20131;-63
2023/12/01 07:41:52;;;;;;;47.83;29.45;;;;;;;22.12;nan;99235.44;4759054;30;20166;-64
2023/12/01 07:44:21;;;;;;;47.22;27.58;;;;;;;22.08;nan;99223.53;4748558;30;20063;-64
2023/12/01 07:46:53;;;;;;;46.85;28.88;;;;;;;22.10;nan;99221.38;4734619;30;20052;-64
2023/12/01 07:49:22;;;;;;;45.15;28.30;;;;;;;22.17;nan;99220.09;4751017;30;20052;-64
2023/12/01 07:51:52;;;;;;;46.92;28.02;;;;;;;22.19;nan;99212.56;4751886;30;20051;-64
2023/12/01 07:54:22;;;;;;;42.65;27.40;;;;;;;22.24;nan;99211.81;4739548;30;20060;-64
2023/12/01 07:56:51;;;;;;;43.13;25.40;;;;;;;22.20;nan;99210.69;4744739;30;20060;-64
2023/12/01 07:59:21;;;;;;;43.42;24.33;;;;;;;22.20;nan;99203.41;4756522;30;20059;-64
2023/12/01 08:01:51;;;;;;;33.60;22.15;;;;;;;22.25;nan;99203.47;4763148;30;20048;-65
2023/12/01 08:04:20;;;;;;;37.45;22.35;;;;;;;22.24;nan;99188.34;4747944;30;20071;-64
2023/12/01 08:06:50;;;;;;;37.17;22.00;;;;;;;22.26;nan;99188.88;4746492;30;20062;-63
2023/12/01 08:09:19;;;;;;;39.10;22.25;;;;;;;22.27;nan;99179.72;4741811;30;20434;-64
2023/12/01 08:11:49;;;;;;;38.00;22.27;;;;;;;22.34;nan;99174.13;4742508;30;20141;-64
2023/12/01 08:14:20;;;;;;;37.08;20.83;;;;;;;22.23;nan;99175.09;4753334;30;20062;-64
2023/12/01 08:16:49;;;;;;;34.35;19.95;;;;;;;22.29;nan;99163.28;4751144;30;20059;-63
2023/12/01 08:19:19;;;;;;;34.08;17.80;;;;;;;22.18;nan;99159.66;4752056;30;20095;-62
2023/12/01 08:21:49;;;;;;;27.00;16.38;;;;;;;22.16;nan;99159.13;4765142;29;20118;-63
2023/12/01 08:24:18;;;;;;;26.38;15.95;;;;;;;22.21;nan;99159.16;4764847;29;20579;-63
2023/12/01 08:27:00;;;;;;;26.10;14.93;;;;;;;22.17;nan;99157.25;4762427;29;20107;-64
2023/12/01 08:29:29;;;;;;;23.65;14.55;;;;;;;22.14;nan;99160.44;4764422;29;20066;-64
2023/12/01 08:32:00;;;;;;;23.60;15.93;;;;;;;22.09;nan;99150.41;4760744;30;20532;-63
2023/12/01 08:34:29;;;;;;;28.30;15.98;;;;;;;22.23;nan;99140.00;4761272;29;20051;-64
2023/12/01 08:36:59;;;;;;;19.30;13.55;;;;;;;22.26;nan;99129.50;4759976;29;20398;-64
2023/12/01 08:39:30;;;;;;;25.52;14.10;;;;;;;22.35;nan;99132.53;4759578;30;20502;-63
2023/12/01 08:41:59;;;;;;;22.35;13.98;;;;;;;22.27;nan;99139.22;4759291;30;20059;-64
2023/12/01 08:44:29;;;;;;;19.45;14.20;;;;;;;22.35;nan;99129.84;4766600;29;20435;-64
2023/12/01 08:46:59;;;;;;;21.45;13.35;;;;;;;22.39;nan;99134.47;4764290;29;20051;-63
2023/12/01 08:49:29;;;;;;;18.23;12.73;;;;;;;22.26;nan;99126.03;4763175;30;20060;-64
2023/12/01 08:51:58;;;;;;;20.10;13.65;;;;;;;22.32;nan;99119.56;4765325;30;20052;-63
2023/12/01 08:54:28;;;;;;;23.95;13.52;;;;;;;22.35;nan;99121.75;4764687;30;20108;-64
2023/12/01 08:56:58;;;;;;;23.27;14.05;;;;;;;22.31;nan;99124.16;4758580;30;20083;-64
2023/12/01 08:59:28;;;;;;;21.60;13.85;;;;;;;22.25;nan;99113.59;4769586;29;20052;-64
2023/12/01 09:01:58;;;;;;;23.83;13.65;;;;;;;22.33;nan;99111.22;4765808;29;20063;-63
2023/12/01 09:04:27;;;;;;;17.60;12.80;;;;;;;22.33;nan;99108.53;4761650;30;20051;-63
2023/12/01 09:06:56;;;;;;;23.10;13.82;;;;;;;22.31;nan;99109.84;4770788;29;20084;-64
2023/12/01 09:09:27;;;;;;;19.83;13.30;;;;;;;22.29;nan;99103.91;4764858;29;20059;-64
2023/12/01 09:11:56;;;;;;;21.50;12.82;;;;;;;22.29;nan;99099.31;4761503;29;20098;-64
2023/12/01 09:14:25;;;;;;;17.55;12.48;;;;;;;22.29;nan;99101.22;4761946;29;20504;-64
2023/12/01 09:16:56;;;;;;;16.90;11.25;;;;;;;22.22;nan;99095.19;4761722;29;20055;-64
2023/12/01 09:19:25;;;;;;;20.80;12.95;;;;;;;22.30;nan;99092.84;4757851;30;20055;-63
2023/12/01 09:21:54;;;;;;;20.45;11.40;;;;;;;22.29;nan;99091.22;4758550;29;20067;-64
2023/12/01 09:24:24;;;;;;;20.70;11.77;;;;;;;22.29;nan;99074.22;4765717;29;20134;-63
2023/12/01 09:26:54;;;;;;;17.40;11.82;;;;;;;22.23;nan;99076.06;4756608;30;20067;-63
2023/12/01 09:29:23;;;;;;;18.05;11.30;;;;;;;22.23;nan;99084.16;4760175;30;20082;-64
2023/12/01 09:31:53;;;;;;;16.50;11.05;;;;;;;22.24;nan;99080.38;4759985;29;20409;-64
2023/12/01 09:34:23;;;;;;;15.90;11.02;;;;;;;22.21;nan;99082.81;4765037;29;20066;-63
2023/12/01 09:36:52;;;;;;;16.15;10.95;;;;;;;22.19;nan;99083.03;4758610;30;20047;-63
2023/12/01 09:39:22;;;;;;;14.80;10.82;;;;;;;22.19;nan;99079.53;4761274;30;20449;-64
2023/12/01 09:41:52;;;;;;;16.88;11.82;;;;;;;22.14;nan;99074.09;4770655;29;20052;-64
2023/12/01 09:44:22;;;;;;;14.02;9.77;;;;;;;22.14;nan;99072.22;4765473;30;20051;-63
2023/12/01 09:46:55;;;;;;;15.75;11.20;;;;;;;22.10;nan;99071.09;4765947;29;20051;-64
2023/12/01 09:49:25;;;;;;;15.02;10.40;;;;;;;22.09;nan;99065.97;4757588;29;20066;-64
2023/12/01 09:51:54;;;;;;;14.82;10.70;;;;;;;22.08;nan;99065.16;4765058;30;20091;-63
2023/12/01 09:54:24;;;;;;;17.98;11.27;;;;;;;22.03;nan;99064.31;4763533;29;20151;-64
2023/12/01 09:56:56;;;;;;;24.05;11.13;;;;;;;22.06;nan;99061.09;4761125;30;20181;-63
2023/12/01 09:59:26;;;;;;;15.15;10.68;;;;;;;22.05;nan;99065.66;4745140;30;20088;-64
2023/12/01 10:01:55;;;;;;;17.00;10.95;;;;;;;21.97;nan;99058.06;4763995;30;20052;-63
2023/12/01 10:04:24;;;;;;;28.10;11.48;;;;;;;21.98;nan;99062.38;4763918;29;20130;-64
2023/12/01 10:06:54;;;;;;;18.35;10.57;;;;;;;22.00;nan;99054.84;4758115;29;20121;-63
2023/12/01 10:09:32;;;;;;;15.52;10.82;;;;;;;21.96;nan;99056.41;4758366;29;20114;-64
2023/12/01 10:12:12;;;;;;;15.82;10.38;;;;;;;21.93;nan;99049.66;4758389;29;20398;-66
2023/12/01 10:14:42;;;;;;;16.65;10.30;;;;;;;21.90;nan;99049.34;4764744;29;20055;-64
2023/12/01 10:17:15;;;;;;;17.10;10.80;;;;;;;21.87;nan;99050.66;4759772;30;20051;-64
2023/12/01 10:19:49;;;;;;;20.55;10.75;;;;;;;21.86;nan;99053.63;4744122;30;20067;-65
2023/12/01 10:22:19;;;;;;;19.15;11.35;;;;;;;21.84;nan;99044.97;4768745;30;20524;-64
2023/12/01 10:24:57;;;;;;;15.88;11.57;;;;;;;21.79;nan;99044.91;4761123;30;20075;-64
2023/12/01 10:27:29;;;;;;;16.27;10.75;;;;;;;21.77;nan;99047.06;4764749;30;20048;-64
2023/12/01 10:30:16;;;;;;;16.27;11.27;;;;;;;21.73;nan;99044.06;4765356;29;20055;-64
2023/12/01 10:32:47;;;;;;;15.60;10.13;;;;;;;21.70;nan;99035.66;4766808;30;20059;-64
2023/12/01 10:35:17;;;;;;;18.13;10.43;;;;;;;21.62;nan;99041.53;4763548;30;20123;-64
2023/12/01 10:37:48;;;;;;;20.50;10.57;;;;;;;21.57;nan;99034.22;4766264;29;20148;-64
2023/12/01 10:40:19;;;;;;;16.48;10.15;;;;;;;21.49;nan;99043.59;4763872;29;20083;-65
2023/12/01 10:42:52;;;;;;;16.83;10.70;;;;;;;21.47;nan;99034.91;4767407;29;20142;-64
2023/12/01 10:45:21;;;;;;;22.27;10.27;;;;;;;21.41;nan;99035.97;4771515;29;20070;-64
2023/12/01 10:47:53;;;;;;;15.18;9.88;;;;;;;21.36;nan;99038.59;4746899;30;20525;-64
2023/12/01 10:50:23;;;;;;;15.67;10.40;;;;;;;21.29;nan;99034.44;4762450;29;20425;-65
2023/12/01 10:52:58;;;;;;;19.38;10.38;;;;;;;21.23;nan;99030.09;4766589;29;20299;-64
2023/12/01 10:55:28;;;;;;;18.77;10.07;;;;;;;21.18;nan;99035.44;4763590;30;20140;-64
2023/12/01 10:58:00;;;;;;;13.77;10.13;;;;;;;21.14;nan;99037.81;4767394;30;20060;-65
2023/12/01 11:00:30;;;;;;;16.75;11.10;;;;;;;21.07;nan;99034.47;4764389;30;20436;-63
2023/12/01 11:03:04;;;;;;;20.05;10.60;;;;;;;21.01;nan;99035.47;4768282;29;20066;-63
2023/12/01 11:05:35;;;;;;;16.23;10.73;;;;;;;20.95;nan;99033.78;4765941;29;20166;-63
2023/12/01 11:08:44;;;;;;;19.65;11.02;;;;;;;20.88;nan;99027.78;4765871;30;20113;-64
2023/12/01 11:11:41;;;;;;;15.60;11.35;;;;;;;20.81;nan;99030.66;4763100;29;20724;-63
2023/12/01 11:14:31;;;;;;;17.58;11.65;;;;;;;20.78;nan;99035.72;4763465;30;20078;-63
2023/12/01 11:17:01;;;;;;;18.95;10.88;;;;;;;20.70;nan;99033.47;4766059;30;20068;-64
2023/12/01 11:19:42;;;;;;;18.92;11.50;;;;;;;20.63;nan;99029.09;4762453;30;20062;-63
2023/12/01 11:22:27;;;;;;;19.70;11.82;;;;;;;20.59;nan;99029.81;4765535;29;20136;-63
2023/12/01 11:24:58;;;;;;;17.05;11.52;;;;;;;20.53;nan;99038.91;4762642;30;20236;-63
2023/12/01 11:27:31;;;;;;;19.58;11.73;;;;;;;20.46;nan;99033.69;4763465;29;20091;-63
2023/12/01 11:30:10;;;;;;;28.33;11.90;;;;;;;20.39;nan;99025.00;4763182;30;20070;-64
2023/12/01 11:32:42;;;;;;;20.40;11.27;;;;;;;20.27;nan;99035.00;4766943;29;20710;-64
2023/12/01 11:35:13;;;;;;;19.20;11.50;;;;;;;20.17;nan;99027.63;4744985;30;20821;-63
2023/12/01 11:38:05;;;;;;;21.38;11.45;;;;;;;20.07;nan;99029.31;4762781;29;20051;-64
2023/12/01 11:40:41;;;;;;;24.27;11.07;;;;;;;19.93;nan;99022.66;4760151;29;20062;-64
2023/12/01 11:43:11;;;;;;;24.05;11.30;;;;;;;19.90;nan;99029.34;4760170;30;20051;-64
2023/12/01 11:45:48;;;;;;;26.17;11.75;;;;;;;19.79;nan;99037.47;4766460;30;20058;-63
2023/12/01 11:48:18;;;;;;;22.73;11.38;;;;;;;19.71;nan;99034.13;4765336;29;20059;-64